sensor_id;sensor_type;location;lat;lon;timestamp;P1;durP1;ratioP1;P2;durP2;ratioP2
32365;SDS011;18837;46.832;16.838;2022-10-22T00:00:34;18.63;;;14.60;;
32365;SDS011;18837;46.832;16.838;2022-10-22T00:02:59;16.43;;;13.70;;
32365;SDS011;18837;46.832;16.838;2022-10-22T00:05:25;17.43;;;14.00;;
32365;SDS011;18837;46.832;16.838;2022-10-22T00:07:51;18.10;;;14.30;;
32365;SDS011;18837;46.832;16.838;2022-10-22T00:10:16;18.30;;;13.67;;
32365;SDS011;18837;46.832;16.838;2022-10-22T00:12:43;18.67;;;13.57;;
32365;SDS011;18837;46.832;16.838;2022-10-22T00:15:09;17.80;;;13.27;;
32365;SDS011;18837;46.832;16.838;2022-10-22T00:17:35;18.37;;;14.73;;
32365;SDS011;18837;46.832;16.838;2022-10-22T00:20:00;17.13;;;13.47;;
32365;SDS011;18837;46.832;16.838;2022-10-22T00:22:27;19.53;;;14.20;;
32365;SDS011;18837;46.832;16.838;2022-10-22T00:24:53;17.90;;;13.50;;
32365;SDS011;18837;46.832;16.838;2022-10-22T00:27:19;16.53;;;13.40;;
32365;SDS011;18837;46.832;16.838;2022-10-22T00:29:44;17.40;;;13.77;;
32365;SDS011;18837;46.832;16.838;2022-10-22T00:32:10;15.13;;;13.20;;
32365;SDS011;18837;46.832;16.838;2022-10-22T00:34:36;18.63;;;13.87;;
32365;SDS011;18837;46.832;16.838;2022-10-22T00:37:02;17.40;;;13.90;;
32365;SDS011;18837;46.832;16.838;2022-10-22T00:39:32;14.80;;;12.83;;
32365;SDS011;18837;46.832;16.838;2022-10-22T00:41:58;18.17;;;14.00;;
32365;SDS011;18837;46.832;16.838;2022-10-22T00:47:27;17.57;;;12.33;;
32365;SDS011;18837;46.832;16.838;2022-10-22T00:50:04;16.10;;;13.27;;
32365;SDS011;18837;46.832;16.838;2022-10-22T00:52:33;14.77;;;12.33;;
32365;SDS011;18837;46.832;16.838;2022-10-22T00:55:00;15.43;;;13.13;;
32365;SDS011;18837;46.832;16.838;2022-10-22T00:57:26;18.03;;;13.07;;
32365;SDS011;18837;46.832;16.838;2022-10-22T00:59:52;18.17;;;13.53;;
32365;SDS011;18837;46.832;16.838;2022-10-22T01:02:19;15.80;;;13.50;;
32365;SDS011;18837;46.832;16.838;2022-10-22T01:04:45;17.00;;;12.43;;
32365;SDS011;18837;46.832;16.838;2022-10-22T01:07:14;14.60;;;12.33;;
32365;SDS011;18837;46.832;16.838;2022-10-22T01:09:48;16.20;;;12.57;;
32365;SDS011;18837;46.832;16.838;2022-10-22T01:12:29;15.47;;;13.03;;
32365;SDS011;18837;46.832;16.838;2022-10-22T01:15:10;14.90;;;12.73;;
32365;SDS011;18837;46.832;16.838;2022-10-22T01:17:41;14.47;;;12.37;;
32365;SDS011;18837;46.832;16.838;2022-10-22T01:31:25;15.83;;;12.83;;
32365;SDS011;18837;46.832;16.838;2022-10-22T01:33:59;15.07;;;12.40;;
32365;SDS011;18837;46.832;16.838;2022-10-22T01:36:27;15.17;;;13.30;;
32365;SDS011;18837;46.832;16.838;2022-10-22T01:38:55;15.70;;;12.20;;
32365;SDS011;18837;46.832;16.838;2022-10-22T01:41:22;17.83;;;13.30;;
32365;SDS011;18837;46.832;16.838;2022-10-22T01:43:48;15.77;;;12.93;;
32365;SDS011;18837;46.832;16.838;2022-10-22T01:46:21;15.07;;;13.07;;
32365;SDS011;18837;46.832;16.838;2022-10-22T01:54:24;13.30;;;11.93;;
32365;SDS011;18837;46.832;16.838;2022-10-22T02:04:34;15.63;;;12.30;;
32365;SDS011;18837;46.832;16.838;2022-10-22T02:07:07;14.53;;;12.30;;
32365;SDS011;18837;46.832;16.838;2022-10-22T02:09:36;16.27;;;11.87;;
32365;SDS011;18837;46.832;16.838;2022-10-22T02:12:04;15.47;;;11.97;;
32365;SDS011;18837;46.832;16.838;2022-10-22T02:14:31;14.07;;;12.20;;
32365;SDS011;18837;46.832;16.838;2022-10-22T02:17:01;14.17;;;11.60;;
32365;SDS011;18837;46.832;16.838;2022-10-22T02:21:59;14.13;;;12.37;;
32365;SDS011;18837;46.832;16.838;2022-10-22T02:24:25;15.40;;;12.27;;
32365;SDS011;18837;46.832;16.838;2022-10-22T02:26:58;15.07;;;12.37;;
32365;SDS011;18837;46.832;16.838;2022-10-22T02:29:36;14.40;;;12.63;;
32365;SDS011;18837;46.832;16.838;2022-10-22T02:32:05;16.53;;;12.70;;
32365;SDS011;18837;46.832;16.838;2022-10-22T02:34:33;13.97;;;12.43;;
32365;SDS011;18837;46.832;16.838;2022-10-22T02:36:59;14.60;;;12.50;;
32365;SDS011;18837;46.832;16.838;2022-10-22T02:39:27;15.30;;;12.13;;
32365;SDS011;18837;46.832;16.838;2022-10-22T02:41:55;13.53;;;11.67;;
32365;SDS011;18837;46.832;16.838;2022-10-22T02:44:22;14.13;;;12.27;;
32365;SDS011;18837;46.832;16.838;2022-10-22T02:46:48;14.03;;;12.30;;
32365;SDS011;18837;46.832;16.838;2022-10-22T02:49:15;13.00;;;11.70;;
32365;SDS011;18837;46.832;16.838;2022-10-22T02:51:41;13.53;;;11.97;;
32365;SDS011;18837;46.832;16.838;2022-10-22T02:54:06;13.50;;;12.10;;
32365;SDS011;18837;46.832;16.838;2022-10-22T02:56:32;15.30;;;12.03;;
32365;SDS011;18837;46.832;16.838;2022-10-22T02:58:58;14.50;;;11.90;;
32365;SDS011;18837;46.832;16.838;2022-10-22T03:01:24;14.57;;;11.87;;
32365;SDS011;18837;46.832;16.838;2022-10-22T03:03:49;14.13;;;11.80;;
32365;SDS011;18837;46.832;16.838;2022-10-22T03:06:15;12.80;;;11.50;;
32365;SDS011;18837;46.832;16.838;2022-10-22T03:08:41;14.87;;;12.13;;
32365;SDS011;18837;46.832;16.838;2022-10-22T03:11:07;12.47;;;11.13;;
32365;SDS011;18837;46.832;16.838;2022-10-22T03:13:33;15.87;;;12.03;;
32365;SDS011;18837;46.832;16.838;2022-10-22T03:15:58;14.07;;;12.33;;
32365;SDS011;18837;46.832;16.838;2022-10-22T03:18:24;15.10;;;12.40;;
32365;SDS011;18837;46.832;16.838;2022-10-22T03:20:56;13.50;;;11.57;;
32365;SDS011;18837;46.832;16.838;2022-10-22T03:23:35;17.03;;;13.90;;
32365;SDS011;18837;46.832;16.838;2022-10-22T03:26:01;13.43;;;12.03;;
32365;SDS011;18837;46.832;16.838;2022-10-22T03:28:28;15.40;;;12.27;;
32365;SDS011;18837;46.832;16.838;2022-10-22T03:30:54;13.83;;;11.70;;
32365;SDS011;18837;46.832;16.838;2022-10-22T03:33:19;12.43;;;11.03;;
32365;SDS011;18837;46.832;16.838;2022-10-22T03:35:45;13.63;;;12.20;;
32365;SDS011;18837;46.832;16.838;2022-10-22T03:38:11;14.03;;;12.13;;
32365;SDS011;18837;46.832;16.838;2022-10-22T03:40:38;13.87;;;12.23;;
32365;SDS011;18837;46.832;16.838;2022-10-22T03:43:05;15.67;;;12.57;;
32365;SDS011;18837;46.832;16.838;2022-10-22T03:45:31;13.53;;;11.60;;
32365;SDS011;18837;46.832;16.838;2022-10-22T03:47:57;13.37;;;11.83;;
32365;SDS011;18837;46.832;16.838;2022-10-22T03:50:22;12.93;;;11.53;;
32365;SDS011;18837;46.832;16.838;2022-10-22T03:52:49;13.63;;;12.17;;
32365;SDS011;18837;46.832;16.838;2022-10-22T03:55:15;15.07;;;12.30;;
32365;SDS011;18837;46.832;16.838;2022-10-22T03:57:41;14.67;;;12.23;;
32365;SDS011;18837;46.832;16.838;2022-10-22T04:00:07;13.20;;;11.77;;
32365;SDS011;18837;46.832;16.838;2022-10-22T04:02:33;14.77;;;12.50;;
32365;SDS011;18837;46.832;16.838;2022-10-22T04:04:59;14.53;;;12.10;;
32365;SDS011;18837;46.832;16.838;2022-10-22T04:07:27;16.77;;;13.23;;
32365;SDS011;18837;46.832;16.838;2022-10-22T04:09:53;16.10;;;13.07;;
32365;SDS011;18837;46.832;16.838;2022-10-22T04:12:18;16.30;;;12.80;;
32365;SDS011;18837;46.832;16.838;2022-10-22T04:14:44;15.17;;;12.57;;
32365;SDS011;18837;46.832;16.838;2022-10-22T04:17:10;14.00;;;12.43;;
32365;SDS011;18837;46.832;16.838;2022-10-22T04:19:35;16.07;;;12.77;;
32365;SDS011;18837;46.832;16.838;2022-10-22T04:22:01;16.60;;;13.47;;
32365;SDS011;18837;46.832;16.838;2022-10-22T04:24:26;14.97;;;12.77;;
32365;SDS011;18837;46.832;16.838;2022-10-22T04:26:55;14.13;;;12.40;;
32365;SDS011;18837;46.832;16.838;2022-10-22T04:29:21;17.17;;;12.83;;
32365;SDS011;18837;46.832;16.838;2022-10-22T04:31:47;13.50;;;11.80;;
32365;SDS011;18837;46.832;16.838;2022-10-22T04:34:13;15.83;;;12.30;;
32365;SDS011;18837;46.832;16.838;2022-10-22T04:36:38;15.27;;;13.10;;
32365;SDS011;18837;46.832;16.838;2022-10-22T04:39:04;16.13;;;12.17;;
32365;SDS011;18837;46.832;16.838;2022-10-22T04:41:37;16.40;;;13.10;;
32365;SDS011;18837;46.832;16.838;2022-10-22T04:44:03;15.97;;;12.27;;
32365;SDS011;18837;46.832;16.838;2022-10-22T04:46:31;16.00;;;12.33;;
32365;SDS011;18837;46.832;16.838;2022-10-22T04:48:58;15.30;;;12.33;;
32365;SDS011;18837;46.832;16.838;2022-10-22T04:51:24;15.57;;;13.50;;
32365;SDS011;18837;46.832;16.838;2022-10-22T04:53:51;15.10;;;12.67;;
32365;SDS011;18837;46.832;16.838;2022-10-22T04:56:18;14.40;;;12.90;;
32365;SDS011;18837;46.832;16.838;2022-10-22T04:58:50;15.37;;;12.50;;
32365;SDS011;18837;46.832;16.838;2022-10-22T05:01:23;15.50;;;12.43;;
32365;SDS011;18837;46.832;16.838;2022-10-22T05:03:53;13.43;;;12.03;;
32365;SDS011;18837;46.832;16.838;2022-10-22T05:06:21;17.67;;;12.77;;
32365;SDS011;18837;46.832;16.838;2022-10-22T05:08:51;15.77;;;12.93;;
32365;SDS011;18837;46.832;16.838;2022-10-22T05:11:25;14.27;;;11.57;;
32365;SDS011;18837;46.832;16.838;2022-10-22T05:13:56;13.90;;;12.40;;
32365;SDS011;18837;46.832;16.838;2022-10-22T05:16:22;13.03;;;11.50;;
32365;SDS011;18837;46.832;16.838;2022-10-22T05:18:49;14.33;;;11.23;;
32365;SDS011;18837;46.832;16.838;2022-10-22T05:21:15;14.03;;;12.53;;
32365;SDS011;18837;46.832;16.838;2022-10-22T05:23:42;13.93;;;11.80;;
32365;SDS011;18837;46.832;16.838;2022-10-22T05:26:09;15.13;;;12.00;;
32365;SDS011;18837;46.832;16.838;2022-10-22T05:28:36;13.97;;;11.70;;
32365;SDS011;18837;46.832;16.838;2022-10-22T05:31:03;14.83;;;11.53;;
32365;SDS011;18837;46.832;16.838;2022-10-22T05:33:30;14.90;;;12.40;;
32365;SDS011;18837;46.832;16.838;2022-10-22T05:35:57;13.27;;;11.50;;
32365;SDS011;18837;46.832;16.838;2022-10-22T05:38:23;13.60;;;12.20;;
32365;SDS011;18837;46.832;16.838;2022-10-22T05:41:03;13.97;;;11.50;;
32365;SDS011;18837;46.832;16.838;2022-10-22T05:43:30;14.00;;;11.80;;
32365;SDS011;18837;46.832;16.838;2022-10-22T05:45:55;13.57;;;11.50;;
32365;SDS011;18837;46.832;16.838;2022-10-22T05:48:26;14.73;;;12.13;;
32365;SDS011;18837;46.832;16.838;2022-10-22T05:50:52;12.60;;;11.07;;
32365;SDS011;18837;46.832;16.838;2022-10-22T05:53:18;13.13;;;11.00;;
32365;SDS011;18837;46.832;16.838;2022-10-22T05:55:43;13.23;;;10.47;;
32365;SDS011;18837;46.832;16.838;2022-10-22T05:58:10;13.03;;;10.40;;
32365;SDS011;18837;46.832;16.838;2022-10-22T06:00:36;12.83;;;11.43;;
32365;SDS011;18837;46.832;16.838;2022-10-22T06:03:03;10.50;;;9.20;;
32365;SDS011;18837;46.832;16.838;2022-10-22T06:05:29;11.53;;;10.33;;
32365;SDS011;18837;46.832;16.838;2022-10-22T06:07:56;11.47;;;8.77;;
32365;SDS011;18837;46.832;16.838;2022-10-22T06:10:22;10.67;;;9.17;;
32365;SDS011;18837;46.832;16.838;2022-10-22T06:12:48;12.87;;;9.67;;
32365;SDS011;18837;46.832;16.838;2022-10-22T06:15:15;11.00;;;8.60;;
32365;SDS011;18837;46.832;16.838;2022-10-22T06:17:45;9.70;;;8.60;;
32365;SDS011;18837;46.832;16.838;2022-10-22T06:20:11;10.40;;;8.77;;
32365;SDS011;18837;46.832;16.838;2022-10-22T06:22:38;9.80;;;8.60;;
32365;SDS011;18837;46.832;16.838;2022-10-22T06:25:04;10.07;;;9.00;;
32365;SDS011;18837;46.832;16.838;2022-10-22T06:27:32;10.10;;;8.43;;
32365;SDS011;18837;46.832;16.838;2022-10-22T06:29:58;8.83;;;7.97;;
32365;SDS011;18837;46.832;16.838;2022-10-22T06:32:24;9.03;;;8.13;;
32365;SDS011;18837;46.832;16.838;2022-10-22T06:34:49;9.83;;;8.40;;
32365;SDS011;18837;46.832;16.838;2022-10-22T06:37:16;9.77;;;8.17;;
32365;SDS011;18837;46.832;16.838;2022-10-22T06:39:42;8.53;;;6.97;;
32365;SDS011;18837;46.832;16.838;2022-10-22T06:42:07;8.57;;;7.17;;
32365;SDS011;18837;46.832;16.838;2022-10-22T06:44:33;8.00;;;6.60;;
32365;SDS011;18837;46.832;16.838;2022-10-22T06:46:59;7.77;;;6.70;;
32365;SDS011;18837;46.832;16.838;2022-10-22T06:49:24;7.57;;;6.53;;
32365;SDS011;18837;46.832;16.838;2022-10-22T06:51:53;7.80;;;5.90;;
32365;SDS011;18837;46.832;16.838;2022-10-22T06:54:20;17.20;;;6.63;;
32365;SDS011;18837;46.832;16.838;2022-10-22T06:56:46;10.60;;;5.90;;
32365;SDS011;18837;46.832;16.838;2022-10-22T06:59:12;9.90;;;7.63;;
32365;SDS011;18837;46.832;16.838;2022-10-22T07:01:37;10.73;;;5.60;;
32365;SDS011;18837;46.832;16.838;2022-10-22T07:04:04;14.83;;;5.90;;
32365;SDS011;18837;46.832;16.838;2022-10-22T07:06:30;9.50;;;6.13;;
32365;SDS011;18837;46.832;16.838;2022-10-22T07:08:57;12.17;;;5.97;;
32365;SDS011;18837;46.832;16.838;2022-10-22T07:11:56;8.57;;;5.77;;
32365;SDS011;18837;46.832;16.838;2022-10-22T07:14:15;9.40;;;5.77;;
32365;SDS011;18837;46.832;16.838;2022-10-22T07:16:40;8.57;;;5.70;;
32365;SDS011;18837;46.832;16.838;2022-10-22T07:19:08;8.57;;;5.37;;
32365;SDS011;18837;46.832;16.838;2022-10-22T07:21:33;9.70;;;5.50;;
32365;SDS011;18837;46.832;16.838;2022-10-22T07:23:59;7.07;;;5.47;;
32365;SDS011;18837;46.832;16.838;2022-10-22T07:26:25;8.63;;;4.80;;
32365;SDS011;18837;46.832;16.838;2022-10-22T07:28:54;6.90;;;5.87;;
32365;SDS011;18837;46.832;16.838;2022-10-22T07:31:21;9.50;;;5.07;;
32365;SDS011;18837;46.832;16.838;2022-10-22T07:33:46;6.57;;;4.97;;
32365;SDS011;18837;46.832;16.838;2022-10-22T07:36:13;7.40;;;5.20;;
32365;SDS011;18837;46.832;16.838;2022-10-22T07:38:42;5.70;;;4.70;;
32365;SDS011;18837;46.832;16.838;2022-10-22T07:41:09;6.13;;;5.40;;
32365;SDS011;18837;46.832;16.838;2022-10-22T07:43:35;6.10;;;5.10;;
32365;SDS011;18837;46.832;16.838;2022-10-22T07:46:01;6.57;;;4.60;;
32365;SDS011;18837;46.832;16.838;2022-10-22T07:48:27;6.60;;;4.80;;
32365;SDS011;18837;46.832;16.838;2022-10-22T07:50:56;6.33;;;4.80;;
32365;SDS011;18837;46.832;16.838;2022-10-22T07:53:25;5.33;;;4.83;;
32365;SDS011;18837;46.832;16.838;2022-10-22T07:55:50;6.63;;;4.67;;
32365;SDS011;18837;46.832;16.838;2022-10-22T07:58:17;6.07;;;4.73;;
32365;SDS011;18837;46.832;16.838;2022-10-22T08:00:43;6.00;;;4.80;;
32365;SDS011;18837;46.832;16.838;2022-10-22T08:03:12;4.80;;;4.17;;
32365;SDS011;18837;46.832;16.838;2022-10-22T08:05:39;6.07;;;4.37;;
32365;SDS011;18837;46.832;16.838;2022-10-22T08:08:07;6.13;;;5.23;;
32365;SDS011;18837;46.832;16.838;2022-10-22T08:10:34;5.10;;;4.53;;
32365;SDS011;18837;46.832;16.838;2022-10-22T08:13:00;6.40;;;4.43;;
32365;SDS011;18837;46.832;16.838;2022-10-22T08:15:26;5.43;;;4.50;;
32365;SDS011;18837;46.832;16.838;2022-10-22T08:17:52;6.43;;;5.37;;
32365;SDS011;18837;46.832;16.838;2022-10-22T08:20:17;5.53;;;4.90;;
32365;SDS011;18837;46.832;16.838;2022-10-22T08:22:43;6.80;;;4.90;;
32365;SDS011;18837;46.832;16.838;2022-10-22T08:25:10;6.33;;;4.87;;
32365;SDS011;18837;46.832;16.838;2022-10-22T08:27:41;5.63;;;4.53;;
32365;SDS011;18837;46.832;16.838;2022-10-22T08:30:12;5.33;;;4.50;;
32365;SDS011;18837;46.832;16.838;2022-10-22T08:32:39;6.03;;;4.90;;
32365;SDS011;18837;46.832;16.838;2022-10-22T08:35:05;6.40;;;4.60;;
32365;SDS011;18837;46.832;16.838;2022-10-22T08:37:31;8.03;;;4.83;;
32365;SDS011;18837;46.832;16.838;2022-10-22T08:39:57;5.40;;;4.87;;
32365;SDS011;18837;46.832;16.838;2022-10-22T08:50:36;6.07;;;4.97;;
32365;SDS011;18837;46.832;16.838;2022-10-22T08:53:07;6.03;;;4.37;;
32365;SDS011;18837;46.832;16.838;2022-10-22T08:55:42;7.83;;;4.90;;
32365;SDS011;18837;46.832;16.838;2022-10-22T09:06:23;13.93;;;9.73;;
32365;SDS011;18837;46.832;16.838;2022-10-22T09:08:50;11.53;;;8.30;;
32365;SDS011;18837;46.832;16.838;2022-10-22T09:13:46;7.83;;;6.67;;
32365;SDS011;18837;46.832;16.838;2022-10-22T09:16:29;9.57;;;6.83;;
32365;SDS011;18837;46.832;16.838;2022-10-22T09:19:32;7.97;;;6.40;;
32365;SDS011;18837;46.832;16.838;2022-10-22T09:25:16;10.27;;;6.30;;
32365;SDS011;18837;46.832;16.838;2022-10-22T09:27:43;9.53;;;5.90;;
32365;SDS011;18837;46.832;16.838;2022-10-22T09:30:18;10.47;;;6.37;;
32365;SDS011;18837;46.832;16.838;2022-10-22T09:32:47;8.27;;;5.83;;
32365;SDS011;18837;46.832;16.838;2022-10-22T09:35:22;12.00;;;6.17;;
32365;SDS011;18837;46.832;16.838;2022-10-22T09:37:49;12.53;;;6.10;;
32365;SDS011;18837;46.832;16.838;2022-10-22T09:40:18;14.77;;;6.23;;
32365;SDS011;18837;46.832;16.838;2022-10-22T09:42:44;11.27;;;5.70;;
32365;SDS011;18837;46.832;16.838;2022-10-22T09:45:16;9.50;;;6.50;;
32365;SDS011;18837;46.832;16.838;2022-10-22T09:47:44;8.63;;;5.83;;
32365;SDS011;18837;46.832;16.838;2022-10-22T09:53:35;7.70;;;6.37;;
32365;SDS011;18837;46.832;16.838;2022-10-22T09:56:08;11.20;;;5.77;;
32365;SDS011;18837;46.832;16.838;2022-10-22T09:58:41;12.30;;;5.83;;
32365;SDS011;18837;46.832;16.838;2022-10-22T10:01:23;9.27;;;5.77;;
32365;SDS011;18837;46.832;16.838;2022-10-22T10:03:51;9.73;;;5.70;;
32365;SDS011;18837;46.832;16.838;2022-10-22T10:06:18;12.23;;;7.00;;
32365;SDS011;18837;46.832;16.838;2022-10-22T10:08:50;7.30;;;5.77;;
32365;SDS011;18837;46.832;16.838;2022-10-22T10:11:26;12.10;;;6.27;;
32365;SDS011;18837;46.832;16.838;2022-10-22T10:14:10;10.87;;;6.40;;
32365;SDS011;18837;46.832;16.838;2022-10-22T10:19:52;10.10;;;6.30;;
32365;SDS011;18837;46.832;16.838;2022-10-22T10:34:08;9.98;;;6.82;;
32365;SDS011;18837;46.832;16.838;2022-10-22T10:36:53;11.70;;;9.53;;
32365;SDS011;18837;46.832;16.838;2022-10-22T10:39:48;12.97;;;10.83;;
32365;SDS011;18837;46.832;16.838;2022-10-22T10:42:24;12.17;;;10.33;;
32365;SDS011;18837;46.832;16.838;2022-10-22T10:47:53;12.40;;;10.40;;
32365;SDS011;18837;46.832;16.838;2022-10-22T10:50:28;15.13;;;10.43;;
32365;SDS011;18837;46.832;16.838;2022-10-22T10:55:58;13.03;;;9.40;;
32365;SDS011;18837;46.832;16.838;2022-10-22T10:58:51;16.67;;;10.47;;
32365;SDS011;18837;46.832;16.838;2022-10-22T11:07:37;11.60;;;9.07;;
32365;SDS011;18837;46.832;16.838;2022-10-22T11:12:49;17.90;;;14.03;;
32365;SDS011;18837;46.832;16.838;2022-10-22T11:18:02;13.27;;;11.03;;
32365;SDS011;18837;46.832;16.838;2022-10-22T11:23:41;15.60;;;11.03;;
32365;SDS011;18837;46.832;16.838;2022-10-22T11:26:12;19.47;;;10.33;;
32365;SDS011;18837;46.832;16.838;2022-10-22T11:28:50;14.70;;;10.80;;
32365;SDS011;18837;46.832;16.838;2022-10-22T11:31:17;15.73;;;10.13;;
32365;SDS011;18837;46.832;16.838;2022-10-22T11:39:59;17.83;;;10.83;;
32365;SDS011;18837;46.832;16.838;2022-10-22T11:42:31;15.57;;;11.40;;
32365;SDS011;18837;46.832;16.838;2022-10-22T11:45:00;15.40;;;11.80;;
32365;SDS011;18837;46.832;16.838;2022-10-22T11:50:55;17.40;;;11.43;;
32365;SDS011;18837;46.832;16.838;2022-10-22T11:55:54;19.40;;;12.47;;
32365;SDS011;18837;46.832;16.838;2022-10-22T12:01:17;21.33;;;12.23;;
32365;SDS011;18837;46.832;16.838;2022-10-22T12:03:47;20.87;;;12.67;;
32365;SDS011;18837;46.832;16.838;2022-10-22T12:06:16;18.67;;;12.67;;
32365;SDS011;18837;46.832;16.838;2022-10-22T12:12:02;14.83;;;11.93;;
32365;SDS011;18837;46.832;16.838;2022-10-22T12:14:49;17.23;;;12.87;;
32365;SDS011;18837;46.832;16.838;2022-10-22T12:17:17;16.53;;;12.47;;
32365;SDS011;18837;46.832;16.838;2022-10-22T12:19:50;15.30;;;12.40;;
32365;SDS011;18837;46.832;16.838;2022-10-22T12:22:26;13.43;;;11.23;;
32365;SDS011;18837;46.832;16.838;2022-10-22T12:24:55;16.20;;;11.23;;
32365;SDS011;18837;46.832;16.838;2022-10-22T12:27:35;13.33;;;11.03;;
32365;SDS011;18837;46.832;16.838;2022-10-22T12:32:50;14.83;;;10.53;;
32365;SDS011;18837;46.832;16.838;2022-10-22T12:35:19;15.03;;;12.13;;
32365;SDS011;18837;46.832;16.838;2022-10-22T12:37:48;12.87;;;11.13;;
32365;SDS011;18837;46.832;16.838;2022-10-22T12:40:22;12.73;;;11.30;;
32365;SDS011;18837;46.832;16.838;2022-10-22T12:46:21;13.83;;;12.13;;
32365;SDS011;18837;46.832;16.838;2022-10-22T12:48:47;17.03;;;12.03;;
32365;SDS011;18837;46.832;16.838;2022-10-22T12:51:15;12.47;;;11.17;;
32365;SDS011;18837;46.832;16.838;2022-10-22T12:53:48;13.10;;;11.27;;
32365;SDS011;18837;46.832;16.838;2022-10-22T12:56:20;15.67;;;12.47;;
32365;SDS011;18837;46.832;16.838;2022-10-22T12:58:52;13.43;;;11.33;;
32365;SDS011;18837;46.832;16.838;2022-10-22T13:01:26;15.27;;;11.87;;
32365;SDS011;18837;46.832;16.838;2022-10-22T13:06:46;14.60;;;11.57;;
32365;SDS011;18837;46.832;16.838;2022-10-22T13:14:19;12.87;;;11.27;;
32365;SDS011;18837;46.832;16.838;2022-10-22T13:25:23;14.83;;;11.63;;
32365;SDS011;18837;46.832;16.838;2022-10-22T13:27:58;13.00;;;11.60;;
32365;SDS011;18837;46.832;16.838;2022-10-22T13:30:29;14.37;;;12.10;;
32365;SDS011;18837;46.832;16.838;2022-10-22T13:33:00;14.60;;;11.10;;
32365;SDS011;18837;46.832;16.838;2022-10-22T13:38:17;15.67;;;11.90;;
32365;SDS011;18837;46.832;16.838;2022-10-22T13:40:44;13.07;;;11.47;;
32365;SDS011;18837;46.832;16.838;2022-10-22T13:43:10;13.03;;;11.23;;
32365;SDS011;18837;46.832;16.838;2022-10-22T13:45:36;17.87;;;11.90;;
32365;SDS011;18837;46.832;16.838;2022-10-22T13:48:02;13.47;;;11.47;;
32365;SDS011;18837;46.832;16.838;2022-10-22T13:50:28;13.33;;;11.63;;
32365;SDS011;18837;46.832;16.838;2022-10-22T13:53:08;13.63;;;11.60;;
32365;SDS011;18837;46.832;16.838;2022-10-22T13:56:00;12.50;;;10.83;;
32365;SDS011;18837;46.832;16.838;2022-10-22T13:58:26;15.53;;;10.87;;
32365;SDS011;18837;46.832;16.838;2022-10-22T14:00:55;12.87;;;11.00;;
32365;SDS011;18837;46.832;16.838;2022-10-22T14:03:27;12.00;;;10.37;;
32365;SDS011;18837;46.832;16.838;2022-10-22T14:05:55;12.90;;;10.50;;
32365;SDS011;18837;46.832;16.838;2022-10-22T14:08:22;12.77;;;10.30;;
32365;SDS011;18837;46.832;16.838;2022-10-22T14:10:59;14.03;;;11.43;;
32365;SDS011;18837;46.832;16.838;2022-10-22T14:13:29;12.63;;;10.37;;
32365;SDS011;18837;46.832;16.838;2022-10-22T14:15:54;12.57;;;10.93;;
32365;SDS011;18837;46.832;16.838;2022-10-22T14:18:24;11.93;;;10.20;;
32365;SDS011;18837;46.832;16.838;2022-10-22T14:20:53;12.87;;;10.47;;
32365;SDS011;18837;46.832;16.838;2022-10-22T14:23:22;12.50;;;10.63;;
32365;SDS011;18837;46.832;16.838;2022-10-22T14:25:59;12.13;;;10.87;;
32365;SDS011;18837;46.832;16.838;2022-10-22T14:31:47;13.17;;;10.37;;
32365;SDS011;18837;46.832;16.838;2022-10-22T14:34:14;12.57;;;11.00;;
32365;SDS011;18837;46.832;16.838;2022-10-22T14:36:40;13.40;;;10.57;;
32365;SDS011;18837;46.832;16.838;2022-10-22T14:39:09;11.20;;;10.03;;
32365;SDS011;18837;46.832;16.838;2022-10-22T14:41:35;12.63;;;11.03;;
32365;SDS011;18837;46.832;16.838;2022-10-22T14:44:01;12.27;;;10.50;;
32365;SDS011;18837;46.832;16.838;2022-10-22T14:46:27;11.33;;;9.93;;
32365;SDS011;18837;46.832;16.838;2022-10-22T14:48:53;13.03;;;10.90;;
32365;SDS011;18837;46.832;16.838;2022-10-22T14:51:19;11.83;;;10.57;;
32365;SDS011;18837;46.832;16.838;2022-10-22T14:53:45;12.07;;;10.83;;
32365;SDS011;18837;46.832;16.838;2022-10-22T14:56:12;12.20;;;10.90;;
32365;SDS011;18837;46.832;16.838;2022-10-22T14:58:40;12.20;;;10.40;;
32365;SDS011;18837;46.832;16.838;2022-10-22T15:01:08;13.03;;;10.33;;
32365;SDS011;18837;46.832;16.838;2022-10-22T15:03:38;12.27;;;10.77;;
32365;SDS011;18837;46.832;16.838;2022-10-22T15:06:04;12.67;;;10.27;;
32365;SDS011;18837;46.832;16.838;2022-10-22T15:08:30;12.27;;;11.07;;
32365;SDS011;18837;46.832;16.838;2022-10-22T15:11:03;11.43;;;10.23;;
32365;SDS011;18837;46.832;16.838;2022-10-22T15:13:34;12.30;;;10.50;;
32365;SDS011;18837;46.832;16.838;2022-10-22T15:16:00;14.73;;;10.90;;
32365;SDS011;18837;46.832;16.838;2022-10-22T15:18:29;13.33;;;11.07;;
32365;SDS011;18837;46.832;16.838;2022-10-22T15:21:14;13.37;;;11.57;;
32365;SDS011;18837;46.832;16.838;2022-10-22T15:23:45;14.83;;;11.13;;
32365;SDS011;18837;46.832;16.838;2022-10-22T15:26:12;12.80;;;11.37;;
32365;SDS011;18837;46.832;16.838;2022-10-22T15:28:39;14.00;;;11.07;;
32365;SDS011;18837;46.832;16.838;2022-10-22T15:31:05;14.33;;;11.57;;
32365;SDS011;18837;46.832;16.838;2022-10-22T15:33:32;13.10;;;11.07;;
32365;SDS011;18837;46.832;16.838;2022-10-22T15:35:59;12.17;;;10.77;;
32365;SDS011;18837;46.832;16.838;2022-10-22T15:38:47;13.43;;;11.43;;
32365;SDS011;18837;46.832;16.838;2022-10-22T15:41:12;11.83;;;10.53;;
32365;SDS011;18837;46.832;16.838;2022-10-22T15:43:38;14.03;;;11.50;;
32365;SDS011;18837;46.832;16.838;2022-10-22T15:46:11;11.57;;;10.37;;
32365;SDS011;18837;46.832;16.838;2022-10-22T15:48:44;14.23;;;10.83;;
32365;SDS011;18837;46.832;16.838;2022-10-22T15:51:14;13.23;;;11.33;;
32365;SDS011;18837;46.832;16.838;2022-10-22T15:53:41;12.10;;;10.80;;
32365;SDS011;18837;46.832;16.838;2022-10-22T15:56:08;13.10;;;11.53;;
32365;SDS011;18837;46.832;16.838;2022-10-22T15:58:33;14.63;;;11.50;;
32365;SDS011;18837;46.832;16.838;2022-10-22T16:01:03;14.93;;;11.43;;
32365;SDS011;18837;46.832;16.838;2022-10-22T16:03:33;14.93;;;12.20;;
32365;SDS011;18837;46.832;16.838;2022-10-22T16:05:59;13.13;;;11.30;;
32365;SDS011;18837;46.832;16.838;2022-10-22T16:11:33;14.13;;;11.10;;
32365;SDS011;18837;46.832;16.838;2022-10-22T16:14:03;14.07;;;10.53;;
32365;SDS011;18837;46.832;16.838;2022-10-22T16:16:30;12.90;;;10.57;;
32365;SDS011;18837;46.832;16.838;2022-10-22T16:18:57;12.07;;;10.80;;
32365;SDS011;18837;46.832;16.838;2022-10-22T16:21:26;12.83;;;10.80;;
32365;SDS011;18837;46.832;16.838;2022-10-22T16:23:52;11.77;;;10.53;;
32365;SDS011;18837;46.832;16.838;2022-10-22T16:26:21;11.77;;;10.53;;
32365;SDS011;18837;46.832;16.838;2022-10-22T16:28:48;12.07;;;10.77;;
32365;SDS011;18837;46.832;16.838;2022-10-22T16:31:15;11.43;;;10.23;;
32365;SDS011;18837;46.832;16.838;2022-10-22T16:33:42;12.80;;;10.50;;
32365;SDS011;18837;46.832;16.838;2022-10-22T16:36:08;14.70;;;11.97;;
32365;SDS011;18837;46.832;16.838;2022-10-22T16:38:35;13.57;;;11.50;;
32365;SDS011;18837;46.832;16.838;2022-10-22T16:41:11;12.33;;;11.03;;
32365;SDS011;18837;46.832;16.838;2022-10-22T16:43:51;13.87;;;10.37;;